Time;durP1;ratioP1;P1;durP2;ratioP2;P2;SDS_P1;SDS_P2;PMS_P1;PMS_P2;Temp;Humidity;BMP_temperature;BMP_pressure;BME280_temperature;BME280_humidity;BME280_pressure;Samples;Min_cycle;Max_cycle;Signal;HPM_P1;HPM_P2
2023/07/05 02:02:04;;;;;;;22.62;10.07;;;;;;;;;;4468101;28;20071;-74
2023/07/05 02:04:35;;;;;;;16.37;9.32;;;;;;;;;;4274841;33;20450;-74
2023/07/05 02:07:03;;;;;;;15.68;9.73;;;;;;;;;;4275596;33;20386;-74
2023/07/05 02:09:29;;;;;;;18.65;9.38;;;;;;;;;;4277921;33;20066;-75
2023/07/05 02:11:56;;;;;;;20.92;8.68;;;;;;;;;;4282265;33;20092;-75
2023/07/05 02:14:23;;;;;;;18.92;10.45;;;;;;;;;;4296404;33;20234;-74
2023/07/05 02:16:49;;;;;;;18.10;10.30;;;;;;;;;;4296440;33;20075;-74
2023/07/05 02:19:17;;;;;;;15.07;9.52;;;;;;;;;;4296244;33;20033;-74
2023/07/05 02:21:43;;;;;;;16.87;9.50;;;;;;;;;;4296401;33;20063;-74
2023/07/05 02:24:09;;;;;;;15.75;9.57;;;;;;;;;;4294392;33;20041;-75
2023/07/05 02:26:35;;;;;;;17.35;9.85;;;;;;;;;;4296277;33;20473;-73
2023/07/05 02:29:01;;;;;;;22.48;10.23;;;;;;;;;;4296047;33;20052;-74
2023/07/05 02:31:29;;;;;;;16.20;10.05;;;;;;;;;;4293836;33;20059;-74
2023/07/05 02:33:55;;;;;;;23.23;10.18;;;;;;;;;;4301306;33;20048;-75
2023/07/05 02:36:22;;;;;;;14.75;8.80;;;;;;;;;;4310084;33;20237;-74
2023/07/05 02:38:51;;;;;;;18.00;9.30;;;;;;;;;;4310397;33;20854;-74
2023/07/05 02:41:17;;;;;;;24.63;9.95;;;;;;;;;;4310519;33;20062;-74
2023/07/05 02:43:43;;;;;;;20.20;10.10;;;;;;;;;;4310127;33;20444;-73
2023/07/05 02:46:09;;;;;;;13.25;7.72;;;;;;;;;;4296434;33;20395;-75
2023/07/05 02:48:35;;;;;;;29.50;9.20;;;;;;;;;;4296055;33;20103;-74
2023/07/05 02:51:01;;;;;;;19.08;9.18;;;;;;;;;;4294978;33;20486;-73
2023/07/05 02:53:28;;;;;;;21.12;8.63;;;;;;;;;;4294473;33;20045;-73
2023/07/05 02:55:54;;;;;;;16.87;9.52;;;;;;;;;;4295676;33;20073;-73
2023/07/05 02:58:20;;;;;;;23.00;10.52;;;;;;;;;;4285536;33;20037;-74
2023/07/05 03:00:48;;;;;;;16.10;8.98;;;;;;;;;;4284779;33;20102;-74
2023/07/05 03:03:14;;;;;;;21.40;9.15;;;;;;;;;;4295678;33;20101;-73
2023/07/05 03:05:40;;;;;;;28.98;9.75;;;;;;;;;;4296060;33;20037;-74
2023/07/05 03:08:07;;;;;;;14.87;9.50;;;;;;;;;;4295534;33;20062;-73
2023/07/05 03:10:38;;;;;;;15.73;8.50;;;;;;;;;;4291662;33;20045;-75
2023/07/05 03:13:04;;;;;;;13.65;8.10;;;;;;;;;;4283503;33;20135;-74
2023/07/05 03:15:31;;;;;;;19.23;9.07;;;;;;;;;;4283843;33;20038;-74
2023/07/05 03:17:57;;;;;;;17.12;7.53;;;;;;;;;;4283725;33;20075;-74
2023/07/05 03:20:23;;;;;;;18.00;8.75;;;;;;;;;;4282100;33;20060;-75
2023/07/05 03:22:50;;;;;;;19.20;7.62;;;;;;;;;;4276184;33;20532;-74
2023/07/05 03:25:17;;;;;;;15.55;8.38;;;;;;;;;;4281464;33;20046;-74
2023/07/05 03:27:43;;;;;;;16.42;7.28;;;;;;;;;;4282304;33;20050;-74
2023/07/05 03:30:09;;;;;;;17.60;7.78;;;;;;;;;;4281734;33;20041;-74
2023/07/05 03:32:36;;;;;;;14.85;8.27;;;;;;;;;;4278758;33;20086;-76
2023/07/05 03:35:02;;;;;;;13.80;7.97;;;;;;;;;;4280002;33;20041;-75
2023/07/05 03:37:28;;;;;;;14.13;7.75;;;;;;;;;;4280859;33;20301;-75
2023/07/05 03:39:54;;;;;;;18.35;8.30;;;;;;;;;;4280654;33;20543;-75
2023/07/05 03:42:21;;;;;;;18.40;8.75;;;;;;;;;;4280173;33;20528;-74
2023/07/05 03:44:47;;;;;;;13.10;7.53;;;;;;;;;;4280502;33;20087;-76
2023/07/05 03:47:13;;;;;;;15.45;7.07;;;;;;;;;;4274092;33;20080;-75
2023/07/05 03:49:39;;;;;;;13.77;7.50;;;;;;;;;;4271952;33;20045;-75
2023/07/05 03:52:06;;;;;;;21.05;8.00;;;;;;;;;;4265044;33;20033;-74
2023/07/05 03:54:31;;;;;;;21.25;7.70;;;;;;;;;;4279945;33;20037;-74
2023/07/05 03:56:58;;;;;;;17.60;8.32;;;;;;;;;;4279833;33;20540;-74
2023/07/05 03:59:24;;;;;;;16.75;8.75;;;;;;;;;;4278503;33;20045;-76
2023/07/05 04:01:50;;;;;;;12.13;7.65;;;;;;;;;;4279186;33;20068;-75
2023/07/05 04:04:16;;;;;;;20.10;9.02;;;;;;;;;;4270211;33;20068;-75
2023/07/05 04:06:42;;;;;;;27.73;8.95;;;;;;;;;;4280357;33;20045;-75
2023/07/05 04:09:08;;;;;;;19.77;9.27;;;;;;;;;;4280375;33;20100;-75
2023/07/05 04:11:35;;;;;;;19.67;11.10;;;;;;;;;;4278814;33;20093;-75
2023/07/05 04:14:00;;;;;;;23.35;8.93;;;;;;;;;;4271004;33;20464;-74
2023/07/05 04:16:27;;;;;;;16.33;9.05;;;;;;;;;;4271363;33;20072;-74
2023/07/05 04:18:54;;;;;;;17.67;9.40;;;;;;;;;;4280959;33;20484;-74
2023/07/05 04:21:21;;;;;;;16.23;8.68;;;;;;;;;;4280922;33;20489;-75
2023/07/05 04:23:47;;;;;;;16.45;8.07;;;;;;;;;;4279639;33;20033;-75
2023/07/05 04:26:15;;;;;;;18.50;8.45;;;;;;;;;;4282642;33;20284;-75
2023/07/05 04:28:42;;;;;;;20.52;8.88;;;;;;;;;;4284593;33;20079;-75
2023/07/05 04:31:10;;;;;;;13.10;8.48;;;;;;;;;;4278765;33;20041;-74
2023/07/05 04:33:37;;;;;;;27.62;8.57;;;;;;;;;;4267225;33;20045;-75
2023/07/05 04:36:03;;;;;;;11.18;7.82;;;;;;;;;;4266085;33;20041;-75
2023/07/05 04:38:29;;;;;;;21.20;9.20;;;;;;;;;;4269186;33;20050;-75
2023/07/05 04:40:56;;;;;;;21.15;9.60;;;;;;;;;;4267850;33;20064;-75
2023/07/05 04:43:22;;;;;;;21.50;8.05;;;;;;;;;;4266504;33;20052;-75
2023/07/05 04:45:49;;;;;;;17.25;7.75;;;;;;;;;;4251804;33;20083;-76
2023/07/05 04:48:16;;;;;;;27.92;8.20;;;;;;;;;;4250995;33;20060;-76
2023/07/05 04:50:43;;;;;;;19.35;9.13;;;;;;;;;;4253250;33;20298;-75
2023/07/05 04:53:09;;;;;;;21.50;8.65;;;;;;;;;;4256745;33;20072;-75
2023/07/05 04:55:35;;;;;;;17.17;8.50;;;;;;;;;;4252524;33;20178;-75
2023/07/05 04:58:03;;;;;;;16.90;8.73;;;;;;;;;;4223187;34;20101;-75
2023/07/05 05:00:36;;;;;;;15.80;7.80;;;;;;;;;;4223518;34;20080;-75
2023/07/05 05:03:03;;;;;;;16.12;8.18;;;;;;;;;;4225015;33;20062;-75
2023/07/05 05:05:29;;;;;;;15.55;7.82;;;;;;;;;;4236117;33;20054;-76
2023/07/05 05:07:55;;;;;;;13.73;7.70;;;;;;;;;;4236252;33;20100;-75
2023/07/05 05:10:22;;;;;;;25.05;8.85;;;;;;;;;;4233709;33;20065;-76
2023/07/05 05:12:48;;;;;;;12.80;7.28;;;;;;;;;;4237273;33;20063;-75
2023/07/05 05:15:14;;;;;;;17.60;9.27;;;;;;;;;;4237184;33;20457;-75
2023/07/05 05:17:40;;;;;;;15.23;7.78;;;;;;;;;;4237102;33;20038;-74
2023/07/05 05:20:07;;;;;;;20.67;8.30;;;;;;;;;;4236283;33;20055;-73
2023/07/05 05:22:33;;;;;;;15.55;7.35;;;;;;;;;;4239937;33;20045;-75
2023/07/05 05:24:59;;;;;;;16.35;7.22;;;;;;;;;;4265421;33;20071;-75
2023/07/05 05:27:25;;;;;;;19.85;7.65;;;;;;;;;;4263025;33;20041;-76
2023/07/05 05:29:51;;;;;;;23.10;7.93;;;;;;;;;;4269462;33;20459;-76
2023/07/05 05:32:17;;;;;;;16.20;8.50;;;;;;;;;;4281544;33;20075;-76
2023/07/05 05:34:44;;;;;;;17.35;7.65;;;;;;;;;;4281014;33;20078;-75
2023/07/05 05:37:10;;;;;;;12.52;7.10;;;;;;;;;;4282210;33;20394;-76
2023/07/05 05:39:36;;;;;;;19.27;8.73;;;;;;;;;;4281943;33;20041;-74
2023/07/05 05:42:02;;;;;;;21.25;8.20;;;;;;;;;;4268560;33;20064;-77
2023/07/05 05:44:35;;;;;;;18.98;7.37;;;;;;;;;;4265616;33;20098;-75
2023/07/05 05:47:01;;;;;;;16.23;7.10;;;;;;;;;;4267644;33;20396;-75
2023/07/05 05:49:27;;;;;;;16.83;7.75;;;;;;;;;;4267593;33;20046;-75
2023/07/05 05:51:54;;;;;;;13.05;7.80;;;;;;;;;;4269733;33;20061;-76
2023/07/05 05:54:20;;;;;;;27.00;8.13;;;;;;;;;;4270580;33;20086;-77
2023/07/05 05:56:46;;;;;;;10.20;7.00;;;;;;;;;;4281986;33;20049;-75
2023/07/05 05:59:12;;;;;;;17.90;8.50;;;;;;;;;;4282497;33;20069;-76
2023/07/05 06:01:38;;;;;;;14.25;7.97;;;;;;;;;;4281450;33;20388;-75
2023/07/05 06:04:05;;;;;;;16.45;6.93;;;;;;;;;;4294593;33;20092;-76
2023/07/05 06:06:31;;;;;;;19.45;8.93;;;;;;;;;;4293457;33;20431;-77
2023/07/05 06:08:57;;;;;;;10.27;7.97;;;;;;;;;;4284339;33;20069;-76
2023/07/05 06:11:23;;;;;;;12.15;8.38;;;;;;;;;;4282374;33;20059;-74
2023/07/05 06:13:49;;;;;;;14.63;8.50;;;;;;;;;;4293884;33;20049;-75
2023/07/05 06:16:15;;;;;;;16.10;8.88;;;;;;;;;;4293685;33;20048;-75
2023/07/05 06:18:42;;;;;;;17.20;8.98;;;;;;;;;;4292734;33;20067;-78
2023/07/05 06:21:09;;;;;;;15.55;8.77;;;;;;;;;;4295279;33;20388;-75
2023/07/05 06:23:35;;;;;;;21.80;9.18;;;;;;;;;;4310928;33;20052;-75
2023/07/05 06:26:01;;;;;;;24.33;10.55;;;;;;;;;;4311317;33;20036;-75
2023/07/05 06:28:27;;;;;;;18.48;9.27;;;;;;;;;;4310174;33;20056;-75
2023/07/05 06:30:53;;;;;;;17.23;8.05;;;;;;;;;;4296249;33;20463;-76
2023/07/05 06:33:20;;;;;;;15.98;9.43;;;;;;;;;;4296398;33;20048;-75
2023/07/05 06:35:49;;;;;;;17.65;9.52;;;;;;;;;;4284985;33;20045;-75
2023/07/05 06:38:15;;;;;;;21.02;9.50;;;;;;;;;;4278749;33;20424;-75
2023/07/05 06:40:42;;;;;;;18.50;9.95;;;;;;;;;;4279068;33;20072;-75
2023/07/05 06:43:08;;;;;;;31.67;10.15;;;;;;;;;;4263776;33;20053;-76
2023/07/05 06:45:34;;;;;;;25.33;11.07;;;;;;;;;;4266674;33;20080;-75
2023/07/05 06:48:01;;;;;;;25.10;9.40;;;;;;;;;;4266052;33;20049;-75
2023/07/05 06:50:26;;;;;;;14.75;10.02;;;;;;;;;;4267586;33;20055;-76
2023/07/05 06:52:53;;;;;;;17.20;9.68;;;;;;;;;;4266493;33;20053;-76
2023/07/05 06:55:19;;;;;;;25.20;10.25;;;;;;;;;;4240729;33;20079;-76
2023/07/05 06:57:45;;;;;;;25.58;9.43;;;;;;;;;;4262197;33;20058;-76
2023/07/05 07:00:11;;;;;;;28.73;10.43;;;;;;;;;;4245681;33;20076;-75
2023/07/05 07:02:38;;;;;;;30.80;11.57;;;;;;;;;;4239056;33;20194;-75
2023/07/05 07:05:04;;;;;;;30.30;10.30;;;;;;;;;;4238561;33;20130;-76
2023/07/05 07:07:30;;;;;;;15.85;10.23;;;;;;;;;;4248784;33;20068;-76
2023/07/05 07:10:01;;;;;;;18.00;9.27;;;;;;;;;;4251251;33;20089;-77
2023/07/05 07:12:27;;;;;;;17.40;9.15;;;;;;;;;;4257939;33;20115;-76
2023/07/05 07:14:53;;;;;;;18.87;9.77;;;;;;;;;;4262836;33;20037;-76
2023/07/05 07:17:19;;;;;;;21.05;10.07;;;;;;;;;;4261920;33;20431;-76
2023/07/05 07:19:45;;;;;;;21.58;10.15;;;;;;;;;;4264179;33;20058;-76
2023/07/05 07:22:11;;;;;;;24.15;10.45;;;;;;;;;;4266368;33;20053;-76
2023/07/05 07:24:38;;;;;;;20.90;11.18;;;;;;;;;;4266355;33;20055;-75
2023/07/05 07:27:04;;;;;;;19.50;10.48;;;;;;;;;;4266156;33;20900;-76
2023/07/05 07:29:30;;;;;;;24.85;10.23;;;;;;;;;;4262411;33;20042;-74
2023/07/05 07:31:56;;;;;;;19.80;9.82;;;;;;;;;;4256316;33;20075;-75
2023/07/05 07:34:22;;;;;;;17.42;9.90;;;;;;;;;;4260045;33;20456;-75
2023/07/05 07:36:49;;;;;;;17.35;11.80;;;;;;;;;;4260054;33;20038;-76
2023/07/05 07:39:15;;;;;;;18.27;10.73;;;;;;;;;;4273289;33;20101;-75
2023/07/05 07:41:41;;;;;;;16.12;10.65;;;;;;;;;;4282085;33;20420;-76
2023/07/05 07:44:08;;;;;;;16.87;10.05;;;;;;;;;;4280920;33;20403;-77
2023/07/05 07:46:36;;;;;;;28.65;10.90;;;;;;;;;;4281922;33;20092;-76
2023/07/05 07:49:03;;;;;;;18.37;10.52;;;;;;;;;;4280953;33;20063;-74
2023/07/05 07:51:30;;;;;;;16.95;10.85;;;;;;;;;;4271576;33;20058;-77
2023/07/05 07:53:56;;;;;;;22.35;11.25;;;;;;;;;;4270386;33;20041;-75
2023/07/05 07:56:24;;;;;;;17.67;11.07;;;;;;;;;;4273808;33;20205;-75
2023/07/05 07:58:50;;;;;;;17.08;12.15;;;;;;;;;;4268206;33;20067;-75
2023/07/05 08:01:18;;;;;;;18.80;10.88;;;;;;;;;;4273384;33;20075;-75
2023/07/05 08:03:45;;;;;;;19.73;11.77;;;;;;;;;;4264794;33;20102;-77
2023/07/05 08:06:11;;;;;;;17.62;10.77;;;;;;;;;;4263194;33;20067;-75
2023/07/05 08:08:38;;;;;;;19.95;11.27;;;;;;;;;;4265556;33;20073;-75
2023/07/05 08:11:05;;;;;;;15.88;10.63;;;;;;;;;;4264409;33;20116;-75
2023/07/05 08:13:31;;;;;;;19.77;11.55;;;;;;;;;;4273137;33;20061;-75
2023/07/05 08:15:58;;;;;;;23.85;11.12;;;;;;;;;;4270233;33;20063;-75
2023/07/05 08:18:30;;;;;;;18.62;11.10;;;;;;;;;;4272852;33;20092;-75
2023/07/05 08:20:57;;;;;;;16.27;11.45;;;;;;;;;;4269974;33;20098;-75
2023/07/05 08:23:23;;;;;;;19.90;11.77;;;;;;;;;;4270839;33;20067;-76
2023/07/05 08:25:54;;;;;;;16.52;10.32;;;;;;;;;;4272402;33;20060;-77
2023/07/05 08:28:20;;;;;;;;;;;;;;;;;;4270292;33;20030;-76
2023/07/05 08:30:51;;;;;;;18.27;12.20;;;;;;;;;;4267723;33;20081;-75
2023/07/05 08:33:17;;;;;;;24.48;12.13;;;;;;;;;;4270918;33;20050;-75
2023/07/05 08:35:44;;;;;;;14.65;9.63;;;;;;;;;;4270721;33;20056;-75
2023/07/05 08:38:10;;;;;;;33.20;14.40;;;;;;;;;;4276162;33;20112;-75
2023/07/05 08:40:39;;;;;;;21.12;11.27;;;;;;;;;;4279282;33;20107;-75
2023/07/05 08:43:35;;;;;;;22.15;12.18;;;;;;;;;;4279108;33;20489;-75
2023/07/05 08:46:03;;;;;;;19.55;10.23;;;;;;;;;;4267766;33;20482;-75
2023/07/05 08:48:30;;;;;;;22.62;11.05;;;;;;;;;;4265769;33;20071;-75
2023/07/05 08:50:56;;;;;;;20.33;10.60;;;;;;;;;;4265831;33;20049;-75
2023/07/05 08:53:23;;;;;;;19.05;10.48;;;;;;;;;;4263042;33;20104;-74
2023/07/05 08:55:55;;;;;;;22.77;11.20;;;;;;;;;;4268447;33;20384;-75
2023/07/05 08:58:25;;;;;;;17.05;10.57;;;;;;;;;;4270299;33;20335;-75
2023/07/05 09:00:56;;;;;;;16.62;9.88;;;;;;;;;;4259964;33;20083;-75
2023/07/05 09:03:23;;;;;;;15.68;10.00;;;;;;;;;;4265721;33;20464;-74
2023/07/05 09:05:49;;;;;;;19.90;10.10;;;;;;;;;;4258889;33;20571;-75
2023/07/05 09:08:15;;;;;;;21.52;11.32;;;;;;;;;;4261638;33;20139;-74
2023/07/05 09:11:03;;;;;;;12.70;9.70;;;;;;;;;;4260398;33;20105;-75
2023/07/05 09:13:39;;;;;;;12.00;7.75;;;;;;;;;;4270025;33;20126;-74
2023/07/05 09:16:32;;;;;;;16.83;9.32;;;;;;;;;;4272373;33;20101;-75
2023/07/05 09:19:08;;;;;;;17.52;6.72;;;;;;;;;;4268143;33;20046;-75
2023/07/05 09:21:37;;;;;;;12.32;7.68;;;;;;;;;;4264875;33;20503;-76
2023/07/05 09:24:09;;;;;;;14.63;8.00;;;;;;;;;;4276636;33;20402;-75
2023/07/05 09:26:37;;;;;;;13.75;8.82;;;;;;;;;;4276568;33;20147;-74
2023/07/05 09:29:03;;;;;;;13.65;8.75;;;;;;;;;;4275106;33;20075;-75
2023/07/05 09:31:30;;;;;;;28.42;10.20;;;;;;;;;;4276562;33;20057;-76
2023/07/05 09:34:02;;;;;;;11.63;8.30;;;;;;;;;;4276854;33;20068;-75
2023/07/05 09:36:28;;;;;;;14.48;9.38;;;;;;;;;;4277458;33;20050;-75
2023/07/05 09:38:57;;;;;;;18.73;9.20;;;;;;;;;;4279372;33;20116;-76
2023/07/05 09:41:42;;;;;;;13.68;9.02;;;;;;;;;;4271986;33;20073;-75
2023/07/05 09:44:09;;;;;;;17.55;8.70;;;;;;;;;;4267486;33;20045;-75
2023/07/05 09:46:36;;;;;;;15.95;8.05;;;;;;;;;;4265809;33;20088;-74
2023/07/05 09:49:10;;;;;;;10.70;8.23;;;;;;;;;;4266453;33;20073;-76
2023/07/05 09:51:38;;;;;;;14.15;7.47;;;;;;;;;;4266334;33;20067;-75
2023/07/05 09:54:09;;;;;;;11.23;7.70;;;;;;;;;;4267773;33;20046;-75
2023/07/05 09:56:35;;;;;;;;;;;;;;;;;;4270598;33;20062;-76
2023/07/05 09:59:12;;;;;;;10.73;6.95;;;;;;;;;;4267168;33;19940;-76
2023/07/05 10:01:44;;;;;;;9.93;7.60;;;;;;;;;;4269584;33;20079;-75
2023/07/05 10:04:11;;;;;;;13.52;7.85;;;;;;;;;;4270073;33;20053;-77
2023/07/05 10:06:38;;;;;;;15.02;7.10;;;;;;;;;;4270080;33;20067;-76
2023/07/05 10:09:14;;;;;;;23.87;8.55;;;;;;;;;;4267913;33;20046;-76
2023/07/05 10:11:45;;;;;;;17.17;7.65;;;;;;;;;;4269807;33;20064;-76
2023/07/05 10:14:13;;;;;;;14.43;7.55;;;;;;;;;;4269732;33;20064;-76
2023/07/05 10:16:53;;;;;;;14.75;7.80;;;;;;;;;;4267266;33;20080;-77
2023/07/05 10:19:25;;;;;;;17.77;7.32;;;;;;;;;;4269739;33;20050;-75
2023/07/05 10:21:54;;;;;;;8.80;6.22;;;;;;;;;;4269614;33;20050;-76
2023/07/05 10:24:20;;;;;;;12.32;8.38;;;;;;;;;;4269327;33;20079;-77
2023/07/05 10:27:00;;;;;;;19.58;9.02;;;;;;;;;;4267222;33;20067;-77
2023/07/05 10:29:27;;;;;;;12.27;7.35;;;;;;;;;;4269624;33;20054;-75
2023/07/05 10:31:54;;;;;;;21.00;6.47;;;;;;;;;;4269816;33;20077;-75
2023/07/05 10:34:23;;;;;;;10.60;6.65;;;;;;;;;;4268752;33;20049;-75
2023/07/05 10:36:50;;;;;;;16.10;7.00;;;;;;;;;;4268472;33;20054;-74
2023/07/05 10:39:21;;;;;;;9.60;6.30;;;;;;;;;;4269850;33;20381;-75
2023/07/05 10:41:48;;;;;;;8.82;6.37;;;;;;;;;;4280281;33;20057;-75
2023/07/05 10:44:24;;;;;;;9.60;5.20;;;;;;;;;;4281686;33;20089;-75
2023/07/05 10:46:57;;;;;;;16.50;5.82;;;;;;;;;;4295143;33;20044;-75
2023/07/05 10:49:25;;;;;;;12.45;6.35;;;;;;;;;;4295948;33;20066;-76
2023/07/05 10:52:05;;;;;;;8.32;5.07;;;;;;;;;;4295061;33;20424;-77
2023/07/05 10:54:40;;;;;;;6.43;4.90;;;;;;;;;;4294386;33;20037;-76
2023/07/05 10:57:15;;;;;;;13.57;5.78;;;;;;;;;;4295639;33;20181;-77
2023/07/05 10:59:43;;;;;;;5.78;4.35;;;;;;;;;;4295837;33;20079;-77
2023/07/05 11:02:12;;;;;;;9.07;5.35;;;;;;;;;;4421017;27;20098;-76
2023/07/05 11:04:40;;;;;;;6.72;5.35;;;;;;;;;;4266757;33;20084;-76
2023/07/05 11:07:10;;;;;;;14.38;4.62;;;;;;;;;;4268093;33;20046;-76
2023/07/05 11:09:37;;;;;;;10.35;5.07;;;;;;;;;;4267767;33;20050;-75
2023/07/05 11:12:09;;;;;;;7.47;4.45;;;;;;;;;;4267665;33;20169;-76
2023/07/05 11:14:36;;;;;;;8.73;4.28;;;;;;;;;;4267260;33;20045;-77
2023/07/05 11:17:03;;;;;;;10.63;4.50;;;;;;;;;;4253324;33;20095;-77
2023/07/05 11:19:30;;;;;;;8.00;4.97;;;;;;;;;;4251681;33;20097;-77
2023/07/05 11:21:56;;;;;;;6.22;4.65;;;;;;;;;;4253268;33;20042;-76
2023/07/05 11:24:31;;;;;;;7.95;4.80;;;;;;;;;;4251300;33;20089;-78
2023/07/05 11:26:58;;;;;;;10.98;4.93;;;;;;;;;;4252907;33;20083;-77
2023/07/05 11:29:25;;;;;;;7.45;4.37;;;;;;;;;;4251414;33;20585;-77
2023/07/05 11:31:53;;;;;;;8.80;4.43;;;;;;;;;;4252800;33;20080;-78
2023/07/05 11:34:26;;;;;;;9.98;4.18;;;;;;;;;;4250256;33;20062;-77
2023/07/05 11:37:04;;;;;;;9.60;3.97;;;;;;;;;;4252572;33;20042;-78
2023/07/05 11:39:31;;;;;;;6.05;4.03;;;;;;;;;;4250958;33;20076;-78
2023/07/05 11:41:58;;;;;;;4.78;3.80;;;;;;;;;;4252902;33;20417;-77
2023/07/05 11:44:28;;;;;;;9.23;4.30;;;;;;;;;;4251038;33;20420;-77
2023/07/05 11:46:55;;;;;;;7.82;3.58;;;;;;;;;;4252463;33;20177;-75
2023/07/05 11:49:21;;;;;;;7.22;3.62;;;;;;;;;;4252404;33;20357;-77
2023/07/05 11:51:54;;;;;;;5.53;3.78;;;;;;;;;;4252264;33;20078;-75
2023/07/05 11:54:22;;;;;;;5.00;3.78;;;;;;;;;;4251145;33;20417;-76
2023/07/05 11:56:49;;;;;;;8.57;4.22;;;;;;;;;;4251968;33;20374;-75
2023/07/05 11:59:16;;;;;;;5.87;4.12;;;;;;;;;;4252125;33;20181;-75
2023/07/05 12:01:42;;;;;;;7.57;5.12;;;;;;;;;;4251284;33;20517;-77
2023/07/05 12:04:13;;;;;;;8.93;4.18;;;;;;;;;;4250905;33;20046;-77
2023/07/05 12:06:40;;;;;;;13.62;5.07;;;;;;;;;;4250854;33;20058;-76
2023/07/05 12:09:17;;;;;;;6.18;5.40;;;;;;;;;;4252351;33;20454;-76
2023/07/05 12:11:43;;;;;;;13.80;4.25;;;;;;;;;;4252296;33;20049;-77
2023/07/05 12:14:11;;;;;;;9.98;4.62;;;;;;;;;;4266017;33;20081;-77
2023/07/05 12:16:38;;;;;;;9.25;4.47;;;;;;;;;;4262293;33;20046;-77
2023/07/05 12:19:06;;;;;;;6.12;5.00;;;;;;;;;;4254625;33;20053;-76
2023/07/05 12:21:33;;;;;;;10.65;5.20;;;;;;;;;;4265218;33;20067;-78
2023/07/05 12:24:02;;;;;;;8.48;5.03;;;;;;;;;;4264774;33;20087;-75
2023/07/05 12:26:32;;;;;;;8.27;4.75;;;;;;;;;;4265924;33;20085;-77
2023/07/05 12:29:02;;;;;;;7.03;5.30;;;;;;;;;;4265321;33;20045;-76
2023/07/05 12:31:30;;;;;;;11.82;6.12;;;;;;;;;;4264298;33;20540;-77
2023/07/05 12:33:57;;;;;;;12.75;4.85;;;;;;;;;;4223145;34;20060;-76
2023/07/05 12:36:24;;;;;;;12.00;4.60;;;;;;;;;;4223557;34;20096;-76
2023/07/05 12:39:04;;;;;;;10.05;4.68;;;;;;;;;;4221767;34;20060;-76
2023/07/05 12:41:30;;;;;;;5.53;4.28;;;;;;;;;;4223483;34;20090;-75
2023/07/05 12:43:58;;;;;;;13.02;4.20;;;;;;;;;;4223613;34;20069;-76
2023/07/05 12:46:25;;;;;;;4.55;3.90;;;;;;;;;;4223438;34;20088;-76
2023/07/05 12:48:52;;;;;;;5.90;4.10;;;;;;;;;;4249764;33;20072;-75
2023/07/05 12:51:21;;;;;;;7.68;4.15;;;;;;;;;;4251714;33;20072;-75
2023/07/05 12:53:51;;;;;;;9.77;3.83;;;;;;;;;;4250853;33;20104;-75
2023/07/05 12:56:22;;;;;;;4.87;4.12;;;;;;;;;;4250227;33;20545;-75
2023/07/05 12:58:50;;;;;;;11.10;4.25;;;;;;;;;;4249922;33;20189;-76
2023/07/05 13:01:19;;;;;;;8.77;3.67;;;;;;;;;;4251478;33;20080;-75
2023/07/05 13:03:47;;;;;;;10.35;3.60;;;;;;;;;;4251192;33;20782;-76
2023/07/05 13:06:13;;;;;;;9.00;3.87;;;;;;;;;;4251707;33;20049;-76
2023/07/05 13:08:45;;;;;;;4.80;3.80;;;;;;;;;;4248881;33;20503;-76
2023/07/05 13:11:15;;;;;;;12.82;3.58;;;;;;;;;;4251415;33;20050;-76
2023/07/05 13:13:42;;;;;;;5.75;3.65;;;;;;;;;;4264444;33;20075;-76
2023/07/05 13:16:26;;;;;;;9.68;3.70;;;;;;;;;;4265365;33;20053;-76
2023/07/05 13:18:54;;;;;;;10.50;4.97;;;;;;;;;;4264702;33;20071;-76
2023/07/05 13:21:20;;;;;;;6.43;3.25;;;;;;;;;;4264102;33;20039;-75
2023/07/05 13:23:47;;;;;;;4.70;3.67;;;;;;;;;;4253109;33;20095;-76
2023/07/05 13:26:18;;;;;;;5.97;3.33;;;;;;;;;;4253121;33;20058;-78
2023/07/05 13:28:44;;;;;;;7.68;4.28;;;;;;;;;;4253138;33;20071;-77
2023/07/05 13:31:17;;;;;;;6.85;3.70;;;;;;;;;;4256413;33;20064;-75
2023/07/05 13:33:44;;;;;;;15.77;4.15;;;;;;;;;;4256676;33;20050;-76
2023/07/05 13:36:10;;;;;;;17.00;4.68;;;;;;;;;;4256547;33;20174;-76
2023/07/05 13:38:36;;;;;;;11.05;3.30;;;;;;;;;;4251042;33;20064;-78
2023/07/05 13:41:04;;;;;;;9.40;3.40;;;;;;;;;;4254332;33;20071;-76
2023/07/05 13:43:30;;;;;;;4.05;3.60;;;;;;;;;;4254604;33;20058;-76
2023/07/05 13:45:57;;;;;;;10.30;3.55;;;;;;;;;;4254227;33;20388;-76
2023/07/05 13:48:23;;;;;;;3.25;2.95;;;;;;;;;;4253431;33;20068;-76
2023/07/05 13:50:49;;;;;;;5.55;3.10;;;;;;;;;;4253088;33;20718;-78
2023/07/05 13:53:17;;;;;;;10.43;3.40;;;;;;;;;;4252970;33;20102;-76
2023/07/05 13:55:43;;;;;;;3.92;3.28;;;;;;;;;;4253101;33;20076;-77
2023/07/05 13:58:12;;;;;;;5.62;3.20;;;;;;;;;;4252809;33;20050;-76
2023/07/05 14:00:38;;;;;;;3.92;3.25;;;;;;;;;;4253178;33;20058;-76
2023/07/05 14:03:06;;;;;;;5.95;3.15;;;;;;;;;;4251672;33;20066;-77
2023/07/05 14:05:32;;;;;;;4.87;2.90;;;;;;;;;;4254342;33;20050;-76
2023/07/05 14:07:59;;;;;;;9.18;3.37;;;;;;;;;;4255054;33;20050;-75
2023/07/05 14:10:28;;;;;;;4.50;3.47;;;;;;;;;;4256975;33;20053;-75
2023/07/05 14:12:54;;;;;;;7.87;2.92;;;;;;;;;;4256239;33;20072;-76
2023/07/05 14:15:26;;;;;;;7.18;3.45;;;;;;;;;;4253480;33;20056;-76
2023/07/05 14:17:53;;;;;;;7.80;3.50;;;;;;;;;;4254537;33;20046;-76
2023/07/05 14:20:27;;;;;;;8.60;3.55;;;;;;;;;;4255476;33;20034;-76
2023/07/05 14:22:54;;;;;;;5.87;3.95;;;;;;;;;;4254078;33;20068;-76
2023/07/05 14:25:20;;;;;;;5.70;3.12;;;;;;;;;;4252859;33;20492;-77
2023/07/05 14:27:47;;;;;;;4.95;3.15;;;;;;;;;;4254566;33;20072;-76
2023/07/05 14:30:15;;;;;;;14.45;4.03;;;;;;;;;;4255303;33;20063;-76
2023/07/05 14:32:43;;;;;;;11.05;3.40;;;;;;;;;;4254512;33;20451;-76
2023/07/05 14:35:20;;;;;;;8.07;3.90;;;;;;;;;;4253174;33;20059;-75
2023/07/05 14:37:50;;;;;;;7.53;3.30;;;;;;;;;;4253535;33;20075;-74
2023/07/05 14:40:16;;;;;;;9.15;3.25;;;;;;;;;;4252603;33;20334;-76
2023/07/05 14:42:43;;;;;;;3.95;2.92;;;;;;;;;;4252514;33;20055;-75
2023/07/05 14:45:18;;;;;;;12.70;3.30;;;;;;;;;;4253666;33;20112;-75
2023/07/05 14:47:57;;;;;;;11.12;3.72;;;;;;;;;;4254390;33;20058;-76
2023/07/05 14:50:26;;;;;;;7.10;2.72;;;;;;;;;;4256050;33;20072;-75
2023/07/05 14:52:53;;;;;;;7.60;3.35;;;;;;;;;;4256972;33;20218;-76
2023/07/05 14:55:21;;;;;;;7.85;3.53;;;;;;;;;;4255123;33;20085;-75
2023/07/05 14:57:48;;;;;;;4.12;2.50;;;;;;;;;;4256602;33;20080;-75
2023/07/05 15:00:15;;;;;;;7.78;2.97;;;;;;;;;;4256636;33;20441;-75
2023/07/05 15:02:47;;;;;;;4.20;2.78;;;;;;;;;;4256903;33;20058;-76
2023/07/05 15:05:14;;;;;;;3.58;2.92;;;;;;;;;;4254838;33;20064;-76
2023/07/05 15:07:40;;;;;;;5.62;3.28;;;;;;;;;;4257901;33;20420;-75
2023/07/05 15:10:06;;;;;;;5.47;2.80;;;;;;;;;;4257659;33;20072;-75
2023/07/05 15:12:42;;;;;;;54.97;4.15;;;;;;;;;;4258841;33;20058;-76
2023/07/05 15:15:21;;;;;;;134.93;9.65;;;;;;;;;;4257883;33;20064;-77
2023/07/05 15:17:47;;;;;;;53.85;3.67;;;;;;;;;;4260285;33;20596;-76
2023/07/05 15:20:14;;;;;;;19.40;3.12;;;;;;;;;;4260244;33;20046;-77
2023/07/05 15:22:41;;;;;;;18.27;2.53;;;;;;;;;;4261512;33;20079;-76
2023/07/05 15:25:08;;;;;;;9.30;3.37;;;;;;;;;;4257717;33;20045;-76
2023/07/05 15:27:34;;;;;;;12.32;2.15;;;;;;;;;;4258569;33;20516;-78
2023/07/05 15:30:00;;;;;;;45.97;3.67;;;;;;;;;;4258104;33;20372;-76
2023/07/05 15:32:27;;;;;;;40.38;3.70;;;;;;;;;;4255792;33;20395;-82
2023/07/05 15:34:53;;;;;;;9.90;2.22;;;;;;;;;;4254739;33;20046;-80
2023/07/05 15:37:19;;;;;;;33.15;4.00;;;;;;;;;;4253227;33;20064;-83
2023/07/05 15:39:45;;;;;;;7.87;2.35;;;;;;;;;;4254075;33;20076;-81
2023/07/05 15:42:13;;;;;;;4.05;2.00;;;;;;;;;;4251155;33;20097;-82
2023/07/05 15:44:46;;;;;;;5.93;2.92;;;;;;;;;;4251922;33;20043;-79
2023/07/05 15:47:13;;;;;;;5.25;1.90;;;;;;;;;;4251367;33;20495;-80
2023/07/05 15:49:40;;;;;;;4.03;2.17;;;;;;;;;;4239059;33;20057;-80
2023/07/05 15:52:07;;;;;;;4.93;1.92;;;;;;;;;;4252502;33;20072;-80
2023/07/05 15:54:33;;;;;;;8.23;1.52;;;;;;;;;;4252716;33;20054;-81
2023/07/05 15:56:59;;;;;;;5.07;1.50;;;;;;;;;;4249387;33;20085;-77
2023/07/05 15:59:33;;;;;;;5.62;1.60;;;;;;;;;;4222417;34;20098;-81
2023/07/05 16:02:03;;;;;;;2.72;1.33;;;;;;;;;;4223219;34;20297;-82
2023/07/05 16:04:30;;;;;;;6.32;1.60;;;;;;;;;;4224763;34;20035;-81
2023/07/05 16:06:58;;;;;;;15.95;2.97;;;;;;;;;;4222358;34;20062;-78
2023/07/05 16:09:31;;;;;;;8.98;2.10;;;;;;;;;;4223508;34;20079;-82
2023/07/05 16:12:03;;;;;;;6.65;1.95;;;;;;;;;;4224257;34;20062;-81
2023/07/05 16:14:30;;;;;;;5.68;1.98;;;;;;;;;;4238146;33;20043;-81
2023/07/05 16:16:57;;;;;;;3.08;1.92;;;;;;;;;;4235426;33;20046;-80
2023/07/05 16:19:32;;;;;;;1.58;1.48;;;;;;;;;;4236756;33;20042;-79
2023/07/05 16:22:02;;;;;;;2.72;1.75;;;;;;;;;;4237404;33;20050;-80
2023/07/05 16:24:33;;;;;;;;;;;;;;;;;;4234973;33;20080;-79
2023/07/05 16:27:00;;;;;;;8.02;1.90;;;;;;;;;;4237770;33;20047;-81
2023/07/05 16:29:26;;;;;;;1.52;1.40;;;;;;;;;;4237826;33;20079;-80
2023/07/05 16:31:53;;;;;;;3.67;2.08;;;;;;;;;;4237040;33;20226;-80
2023/07/05 16:34:19;;;;;;;4.40;2.17;;;;;;;;;;4237343;33;20041;-81
2023/07/05 16:36:46;;;;;;;9.85;3.12;;;;;;;;;;4235798;33;20165;-80
2023/07/05 16:39:13;;;;;;;4.85;1.62;;;;;;;;;;4237630;33;20055;-80